createdAt,value
2022-09-19T00:01:41.250Z,72.30
2022-09-19T00:04:10.324Z,72.00
2022-09-19T00:06:37.803Z,72.30
2022-09-19T00:09:05.709Z,71.90
2022-09-19T00:11:32.550Z,71.70
2022-09-19T00:14:00.464Z,71.90
2022-09-19T00:16:35.451Z,73.30
2022-09-19T00:19:03.512Z,72.60
2022-09-19T00:21:31.324Z,72.60
2022-09-19T00:24:16.819Z,73.70
2022-09-19T00:26:46.111Z,73.80
2022-09-19T00:29:13.908Z,74.80
2022-09-19T00:31:40.458Z,75.80
2022-09-19T00:34:07.767Z,75.80
2022-09-19T00:36:35.030Z,75.50
2022-09-19T00:39:01.592Z,77.00
2022-09-19T00:41:28.141Z,77.00
2022-09-19T00:43:58.965Z,77.00
2022-09-19T00:46:26.818Z,77.10
2022-09-19T00:48:55.884Z,76.50
2022-09-19T00:51:41.479Z,77.10
2022-09-19T00:54:16.910Z,77.10
2022-09-19T00:56:48.658Z,76.40
2022-09-19T00:59:15.716Z,76.30
2022-09-19T01:01:43.031Z,75.40
2022-09-19T01:04:17.522Z,77.00
2022-09-19T01:06:57.592Z,75.10
2022-09-19T01:09:42.972Z,75.20
2022-09-19T01:12:17.989Z,75.30
2022-09-19T01:14:56.686Z,75.10
2022-09-19T01:17:27.242Z,73.80
2022-09-19T01:20:14.026Z,74.00
2022-09-19T01:22:59.298Z,74.00
2022-09-19T01:25:47.928Z,74.40
2022-09-19T01:28:21.029Z,74.40
2022-09-19T01:31:18.782Z,74.60
2022-09-19T01:34:04.124Z,74.80
2022-09-19T01:36:39.375Z,74.80
2022-09-19T01:39:07.788Z,74.00
2022-09-19T01:41:34.480Z,73.10
2022-09-19T01:44:06.342Z,72.90
2022-09-19T01:46:36.802Z,74.80
2022-09-19T01:49:07.968Z,75.40
2022-09-19T01:51:37.437Z,76.30
2022-09-19T01:54:03.986Z,75.60
2022-09-19T01:56:37.661Z,75.30
2022-09-19T01:59:15.806Z,75.60
2022-09-19T02:01:48.064Z,77.00
2022-09-19T02:04:23.854Z,77.10
2022-09-19T02:06:56.521Z,76.40
2022-09-19T02:09:32.053Z,75.40
2022-09-19T02:12:00.628Z,75.20
2022-09-19T02:14:28.760Z,75.80
2022-09-19T02:17:04.719Z,77.10
2022-09-19T02:19:33.960Z,77.10
2022-09-19T02:22:05.917Z,77.90
2022-09-19T02:24:34.462Z,78.70
2022-09-19T02:27:09.954Z,78.80
2022-09-19T02:29:41.760Z,78.50
2022-09-19T02:32:10.690Z,78.10
2022-09-19T02:34:37.851Z,78.20
2022-09-19T02:37:07.149Z,78.80
2022-09-19T02:39:45.810Z,78.70
2022-09-19T02:42:34.959Z,79.10
2022-09-19T02:45:08.850Z,78.20
2022-09-19T02:47:38.428Z,77.40
2022-09-19T02:50:10.501Z,79.00
2022-09-19T02:52:38.679Z,77.90
2022-09-19T02:55:09.285Z,77.30
2022-09-19T02:57:36.206Z,77.50
2022-09-19T03:00:04.616Z,78.20
2022-09-19T03:02:57.380Z,77.90
2022-09-19T03:05:26.953Z,78.50
2022-09-19T03:07:56.440Z,78.30
2022-09-19T03:10:25.387Z,77.70
2022-09-19T03:13:05.804Z,77.40
2022-09-19T03:15:50.937Z,77.40
2022-09-19T03:18:18.568Z,77.40
2022-09-19T03:20:50.281Z,77.40
2022-09-19T03:23:26.936Z,78.00
2022-09-19T03:25:53.730Z,77.70
2022-09-19T03:28:22.383Z,77.40
2022-09-19T03:30:49.132Z,77.50
2022-09-19T03:33:17.886Z,77.50
2022-09-19T03:35:45.683Z,77.50
2022-09-19T03:38:13.520Z,77.60
2022-09-19T03:40:40.036Z,77.60
2022-09-19T03:43:07.323Z,77.60
2022-09-19T03:45:34.016Z,78.30
2022-09-19T03:48:00.856Z,77.60
2022-09-19T03:50:27.563Z,78.50
2022-09-19T03:52:54.059Z,79.00
2022-09-19T03:55:20.629Z,79.20
2022-09-19T03:57:47.141Z,79.20
2022-09-19T04:00:13.921Z,79.40
2022-09-19T04:02:40.419Z,77.60
2022-09-19T04:05:07.067Z,77.60
2022-09-19T04:07:33.737Z,77.60
2022-09-19T04:10:00.244Z,77.80
2022-09-19T04:12:27.617Z,77.60
2022-09-19T04:14:54.116Z,78.40
2022-09-19T04:17:23.189Z,77.70
2022-09-19T04:19:51.365Z,77.60
2022-09-19T04:22:19.964Z,77.60
2022-09-19T04:24:46.683Z,77.70
2022-09-19T04:27:18.799Z,77.70
2022-09-19T04:29:47.355Z,78.60
2022-09-19T04:32:16.227Z,77.70
2022-09-19T04:34:44.270Z,77.80
2022-09-19T04:37:11.542Z,77.70
2022-09-19T04:39:38.494Z,77.70
2022-09-19T04:42:05.615Z,77.70
2022-09-19T04:44:32.150Z,77.70
2022-09-19T04:46:59.237Z,77.70
2022-09-19T04:49:35.525Z,77.80
2022-09-19T04:52:02.502Z,77.60
2022-09-19T04:54:29.189Z,76.20
2022-09-19T04:56:55.742Z,76.60
2022-09-19T04:59:22.399Z,76.80
2022-09-19T05:01:49.086Z,76.10
2022-09-19T05:04:17.987Z,76.80
2022-09-19T05:06:44.686Z,76.60
2022-09-19T05:09:12.235Z,75.80
2022-09-19T05:11:42.104Z,75.40
2022-09-19T05:14:10.653Z,75.50
2022-09-19T05:16:37.427Z,75.50
2022-09-19T05:19:03.989Z,76.00
2022-09-19T05:21:30.509Z,76.80
2022-09-19T05:23:57.085Z,76.10
2022-09-19T05:26:23.905Z,76.00
2022-09-19T05:28:51.173Z,76.70
2022-09-19T05:31:19.323Z,76.90
2022-09-19T05:33:46.299Z,76.80
2022-09-19T05:36:14.203Z,75.30
2022-09-19T05:38:40.891Z,75.00
2022-09-19T05:41:07.467Z,75.00
2022-09-19T05:43:34.332Z,74.40
2022-09-19T05:46:01.686Z,74.10
2022-09-19T05:48:28.207Z,74.00
2022-09-19T05:50:54.739Z,74.70
2022-09-19T05:53:40.420Z,74.90
2022-09-19T05:56:10.215Z,73.80
2022-09-19T05:58:37.440Z,72.20
2022-09-19T06:01:04.698Z,71.00
2022-09-19T06:03:32.291Z,71.40
2022-09-19T06:05:58.806Z,69.10
2022-09-19T06:08:25.539Z,69.10
2022-09-19T06:10:52.168Z,69.10
2022-09-19T06:13:23.109Z,69.30
2022-09-19T06:15:49.724Z,68.70
2022-09-19T06:18:16.432Z,66.50
2022-09-19T06:20:43.615Z,65.60
2022-09-19T06:23:11.165Z,65.60
2022-09-19T06:25:38.282Z,64.60
2022-09-19T06:28:06.541Z,65.70
2022-09-19T06:30:33.438Z,65.70
2022-09-19T06:32:59.974Z,65.00
2022-09-19T06:35:29.784Z,65.70
2022-09-19T06:38:01.110Z,65.50
2022-09-19T06:40:28.370Z,63.90
2022-09-19T06:43:02.752Z,62.50
2022-09-19T06:45:30.241Z,61.20
2022-09-19T06:48:00.384Z,57.70
2022-09-19T06:50:27.545Z,56.30
2022-09-19T06:52:54.427Z,55.30
2022-09-19T06:55:21.014Z,53.10
2022-09-19T06:57:57.201Z,53.70
2022-09-19T07:00:26.022Z,53.40
2022-09-19T07:03:01.041Z,55.50
2022-09-19T07:05:31.245Z,55.30
2022-09-19T07:07:58.160Z,54.30
2022-09-19T07:10:24.967Z,51.40
2022-09-19T07:12:56.490Z,53.60
2022-09-19T07:15:24.379Z,54.60
2022-09-19T07:17:54.000Z,51.60
2022-09-19T07:20:20.478Z,54.20
2022-09-19T07:22:49.273Z,54.30
2022-09-19T07:25:18.797Z,54.00
2022-09-19T07:27:45.661Z,54.40
2022-09-19T07:30:12.711Z,57.50
2022-09-19T07:32:39.194Z,57.10
2022-09-19T07:35:05.961Z,57.00
2022-09-19T07:37:32.452Z,56.20
2022-09-19T07:40:05.481Z,54.70
2022-09-19T07:42:34.012Z,51.90
2022-09-19T07:45:03.109Z,53.80
2022-09-19T07:47:31.228Z,53.60
2022-09-19T07:49:57.754Z,52.00
2022-09-19T07:52:24.227Z,50.80
2022-09-19T07:54:51.236Z,49.30
2022-09-19T07:57:18.256Z,50.60
2022-09-19T07:59:46.012Z,52.00
2022-09-19T08:02:12.669Z,48.00
2022-09-19T08:04:39.312Z,47.70
2022-09-19T08:07:06.224Z,46.90
2022-09-19T08:09:32.709Z,47.50
2022-09-19T08:12:03.698Z,46.50
2022-09-19T08:14:30.393Z,47.20
2022-09-19T08:16:57.474Z,41.80
2022-09-19T08:19:24.178Z,41.90
2022-09-19T08:21:51.803Z,40.00
2022-09-19T08:24:18.910Z,37.70
2022-09-19T08:26:45.498Z,37.30
2022-09-19T08:29:12.053Z,31.50
2022-09-19T08:31:38.667Z,27.70
2022-09-19T08:34:05.286Z,23.00
2022-09-19T08:36:33.649Z,18.80
2022-09-19T08:39:00.139Z,14.50
2022-09-19T08:41:26.616Z,9.90
2022-09-19T08:44:12.058Z,6.30
2022-09-19T08:46:43.692Z,1.00
2022-09-19T08:49:16.907Z,1.00
2022-09-19T08:51:55.565Z,1.00
2022-09-19T08:54:27.455Z,1.00
2022-09-19T08:56:54.241Z,1.00
2022-09-19T08:59:23.149Z,1.00
2022-09-19T09:02:06.530Z,1.00
2022-09-19T09:04:38.745Z,1.00
2022-09-19T09:07:09.740Z,1.00
2022-09-19T09:09:55.290Z,1.00
2022-09-19T09:12:32.641Z,1.00
2022-09-19T09:15:19.273Z,1.00
2022-09-19T09:17:49.331Z,1.00
2022-09-19T09:20:48.132Z,1.00
2022-09-19T09:23:22.629Z,1.00
2022-09-19T09:25:53.969Z,1.00
2022-09-19T09:28:44.403Z,1.00
2022-09-19T09:31:26.538Z,1.00
2022-09-19T09:33:55.566Z,1.00
2022-09-19T09:36:24.458Z,1.00
2022-09-19T09:38:59.127Z,1.00
2022-09-19T09:41:48.585Z,1.00
2022-09-19T09:44:18.172Z,1.00
2022-09-19T09:46:44.649Z,1.00
2022-09-19T09:49:13.748Z,1.00
2022-09-19T09:52:04.992Z,3.70
2022-09-19T09:54:50.382Z,3.00
2022-09-19T09:57:22.690Z,2.10
2022-09-19T10:00:17.085Z,1.10
2022-09-19T10:03:07.304Z,1.70
2022-09-19T10:05:37.768Z,1.00
2022-09-19T10:08:28.410Z,1.00
2022-09-19T10:14:02.577Z,1.00
2022-09-19T10:16:36.033Z,1.00
2022-09-19T10:19:27.142Z,1.00
2022-09-19T10:21:54.168Z,1.00
2022-09-19T10:24:41.382Z,1.00
2022-09-19T10:27:13.858Z,1.00
2022-09-19T10:29:56.755Z,1.00
2022-09-19T10:32:25.515Z,1.00
2022-09-19T10:34:52.593Z,1.00
2022-09-19T10:37:23.939Z,1.00
2022-09-19T10:39:51.358Z,1.00
2022-09-19T10:42:44.010Z,1.90
2022-09-19T10:45:25.115Z,5.40
2022-09-19T10:47:52.568Z,8.50
2022-09-19T10:50:19.682Z,11.30
2022-09-19T10:52:51.991Z,12.70
2022-09-19T10:55:23.799Z,15.70
2022-09-19T10:57:58.928Z,16.30
2022-09-19T11:00:27.511Z,14.90
2022-09-19T11:02:58.069Z,11.40
2022-09-19T11:05:26.413Z,10.70
2022-09-19T11:07:57.516Z,11.00
2022-09-19T11:10:39.004Z,11.90
2022-09-19T11:13:11.402Z,18.00
2022-09-19T11:15:44.221Z,20.20
2022-09-19T11:18:20.625Z,23.90
2022-09-19T11:21:06.235Z,26.30
2022-09-19T11:23:32.761Z,25.30
2022-09-19T11:26:19.322Z,31.00
2022-09-19T11:28:58.676Z,29.40
2022-09-19T11:37:26.184Z,27.40
2022-09-19T11:40:11.147Z,23.80
2022-09-19T11:42:56.462Z,29.40
2022-09-19T11:45:23.852Z,33.40
2022-09-19T11:48:09.039Z,33.70
2022-09-19T11:50:55.125Z,33.30
2022-09-19T11:53:33.770Z,31.00
2022-09-19T11:56:29.018Z,28.30
2022-09-19T11:59:01.833Z,30.50
2022-09-19T12:01:37.296Z,31.80
2022-09-19T12:04:07.278Z,30.00
2022-09-19T12:06:56.493Z,32.30
2022-09-19T12:09:35.973Z,28.60
2022-09-19T12:12:04.496Z,29.90
2022-09-19T12:15:04.266Z,29.90
2022-09-19T12:17:34.628Z,33.90
2022-09-19T12:20:19.175Z,34.40
2022-09-19T12:23:30.908Z,29.70
2022-09-19T12:25:58.975Z,30.90
2022-09-19T12:28:29.350Z,27.30
2022-09-19T12:31:00.014Z,27.00
2022-09-19T12:33:28.486Z,21.90
2022-09-19T12:36:13.638Z,23.40
2022-09-19T12:38:45.779Z,19.40
2022-09-19T12:41:25.405Z,17.80
2022-09-19T12:44:05.273Z,15.20
2022-09-19T12:46:51.589Z,15.40
2022-09-19T12:49:23.569Z,13.60
2022-09-19T12:52:09.175Z,12.30
2022-09-19T12:54:38.762Z,2.80
2022-09-19T12:57:17.742Z,1.00
2022-09-19T12:59:47.072Z,1.00
2022-09-19T13:02:33.624Z,1.00
2022-09-19T13:05:19.781Z,1.00
2022-09-19T13:08:02.949Z,1.00
2022-09-19T13:10:38.047Z,1.00
2022-09-19T13:13:07.306Z,1.00
2022-09-19T13:15:38.188Z,1.00
2022-09-19T13:18:24.820Z,1.00
2022-09-19T13:21:09.931Z,1.00
2022-09-19T13:23:37.921Z,1.00
2022-09-19T13:26:17.591Z,1.00
2022-09-19T13:28:48.335Z,1.00
2022-09-19T13:31:16.586Z,1.00
2022-09-19T13:33:53.333Z,1.00
2022-09-19T13:36:25.708Z,1.00
2022-09-19T13:38:54.740Z,1.00
2022-09-19T13:41:24.261Z,1.00
2022-09-19T13:43:53.089Z,1.00
2022-09-19T13:46:29.673Z,1.00
2022-09-19T13:49:00.666Z,1.00
2022-09-19T13:51:40.158Z,1.00
2022-09-19T13:54:19.477Z,5.50
2022-09-19T13:56:50.589Z,10.00
2022-09-19T13:59:25.505Z,15.70
2022-09-19T14:01:57.571Z,23.60
2022-09-19T14:04:43.513Z,24.70
2022-09-19T14:10:12.898Z,28.20
2022-09-19T14:12:49.058Z,29.20
2022-09-19T14:15:30.616Z,30.20
2022-09-19T14:18:13.282Z,28.50
2022-09-19T14:20:45.841Z,30.00
2022-09-19T14:23:13.198Z,29.90
2022-09-19T14:25:39.794Z,31.00
2022-09-19T14:28:20.039Z,28.90
2022-09-19T14:31:06.595Z,30.20
2022-09-19T14:33:33.384Z,29.80
2022-09-19T14:36:08.652Z,29.60
2022-09-19T14:38:54.258Z,32.10
2022-09-19T14:41:27.210Z,33.40
2022-09-19T14:44:05.853Z,38.00
2022-09-19T14:46:35.387Z,38.70
2022-09-19T14:49:14.717Z,44.10
2022-09-19T14:51:44.085Z,44.00
2022-09-19T14:54:13.421Z,46.90
2022-09-19T14:56:39.931Z,47.00
2022-09-19T14:59:17.951Z,48.80
2022-09-19T15:01:44.609Z,50.70
2022-09-19T15:04:17.483Z,48.30
2022-09-19T15:06:52.401Z,48.10
2022-09-19T15:09:20.682Z,49.70
2022-09-19T15:11:48.403Z,53.80
2022-09-19T15:14:17.105Z,53.20
2022-09-19T15:16:43.817Z,53.80
2022-09-19T15:19:11.449Z,53.70
2022-09-19T15:21:38.486Z,55.30
2022-09-19T15:24:07.640Z,53.70
2022-09-19T15:26:38.032Z,53.80
2022-09-19T15:29:08.217Z,53.70
2022-09-19T15:31:34.852Z,55.70
2022-09-19T15:34:11.000Z,53.80
2022-09-19T15:36:38.144Z,56.60
2022-09-19T15:39:05.696Z,54.00
2022-09-19T15:41:33.949Z,55.30
2022-09-19T15:44:02.368Z,57.10
2022-09-19T15:46:35.307Z,59.90
2022-09-19T15:49:03.230Z,59.20
2022-09-19T15:51:33.123Z,60.40
2022-09-19T15:54:00.759Z,59.20
2022-09-19T15:56:28.375Z,61.00
2022-09-19T15:58:56.517Z,61.00
2022-09-19T16:01:23.301Z,59.90
2022-09-19T16:03:53.869Z,59.30
2022-09-19T16:06:44.439Z,59.60
2022-09-19T16:09:11.741Z,59.30
2022-09-19T16:11:42.717Z,58.40
2022-09-19T16:14:17.552Z,59.30
2022-09-19T16:16:45.084Z,57.40
2022-09-19T16:19:22.049Z,59.30
2022-09-19T16:21:52.161Z,60.10
2022-09-19T16:24:20.797Z,62.70
2022-09-19T16:27:07.679Z,61.30
2022-09-19T16:29:36.518Z,61.20
2022-09-19T16:32:03.465Z,60.60
2022-09-19T16:34:35.845Z,61.00
2022-09-19T16:37:05.906Z,61.50
2022-09-19T16:39:33.073Z,63.20
2022-09-19T16:42:01.166Z,63.50
2022-09-19T16:44:31.200Z,62.60
2022-09-19T16:46:58.268Z,62.20
2022-09-19T16:49:25.133Z,63.30
2022-09-19T16:51:52.143Z,63.70
2022-09-19T16:54:19.051Z,63.10
2022-09-19T16:56:45.537Z,63.10
2022-09-19T16:59:13.402Z,63.20
2022-09-19T17:01:40.670Z,64.50
2022-09-19T17:04:09.460Z,64.10
2022-09-19T17:06:36.186Z,64.80
2022-09-19T17:09:02.793Z,66.30
2022-09-19T17:11:29.345Z,66.30
2022-09-19T17:13:56.528Z,66.70
2022-09-19T17:16:23.177Z,66.70
2022-09-19T17:18:49.751Z,67.20
2022-09-19T17:21:21.576Z,66.90
2022-09-19T17:23:48.529Z,66.00
2022-09-19T17:26:16.179Z,64.80
2022-09-19T17:28:42.729Z,66.80
2022-09-19T17:31:12.605Z,68.30
2022-09-19T17:33:39.307Z,69.30
2022-09-19T17:36:05.999Z,69.10
2022-09-19T17:38:34.040Z,70.50
2022-09-19T17:41:00.782Z,69.90
2022-09-19T17:43:27.323Z,69.70
2022-09-19T17:46:01.316Z,69.80
2022-09-19T17:48:28.017Z,70.80
2022-09-19T17:50:55.133Z,70.60
2022-09-19T17:53:22.800Z,70.60
2022-09-19T17:55:49.461Z,70.60
2022-09-19T17:58:15.939Z,71.00
2022-09-19T18:00:42.517Z,71.40
2022-09-19T18:03:19.672Z,70.60
2022-09-19T18:05:56.112Z,72.00
2022-09-19T18:08:22.633Z,72.80
2022-09-19T18:10:49.133Z,73.70
2022-09-19T18:13:15.635Z,74.20
2022-09-19T18:15:43.699Z,74.20
2022-09-19T18:18:11.020Z,74.70
2022-09-19T18:20:37.517Z,74.30
2022-09-19T18:23:04.061Z,73.70
2022-09-19T18:25:31.617Z,75.10
2022-09-19T18:27:58.112Z,75.40
2022-09-19T18:30:24.975Z,70.60
2022-09-19T18:32:53.035Z,71.00
2022-09-19T18:35:19.560Z,70.30
2022-09-19T18:37:46.282Z,70.70
2022-09-19T18:40:14.528Z,70.00
2022-09-19T18:42:41.129Z,70.30
2022-09-19T18:45:08.576Z,73.50
2022-09-19T18:47:35.372Z,73.90
2022-09-19T18:50:02.406Z,75.10
2022-09-19T18:52:29.525Z,75.00
2022-09-19T18:54:56.022Z,75.00
2022-09-19T18:57:23.754Z,75.50
2022-09-19T18:59:50.333Z,74.40
2022-09-19T19:02:16.982Z,73.90
2022-09-19T19:04:43.605Z,73.40
2022-09-19T19:07:10.418Z,74.20
2022-09-19T19:09:37.104Z,75.10
2022-09-19T19:12:30.967Z,74.60
2022-09-19T19:14:55.900Z,74.60
2022-09-19T19:17:26.610Z,75.40
2022-09-19T19:19:53.337Z,75.70
2022-09-19T19:22:20.056Z,77.00
2022-09-19T19:24:46.551Z,77.50
2022-09-19T19:27:13.096Z,78.00
2022-09-19T19:29:39.597Z,78.60
2022-09-19T19:32:06.213Z,78.60
2022-09-19T19:34:32.809Z,79.30
2022-09-19T19:36:59.356Z,80.00
2022-09-19T19:39:25.871Z,80.80
2022-09-19T19:41:52.356Z,80.80
2022-09-19T19:44:20.273Z,81.30
2022-09-19T19:46:46.797Z,82.10
2022-09-19T19:49:13.883Z,82.00
2022-09-19T19:51:42.865Z,82.40
2022-09-19T19:54:10.662Z,83.00
2022-09-19T19:56:37.659Z,82.40
2022-09-19T19:59:04.466Z,82.60
2022-09-19T20:01:31.800Z,83.30
2022-09-19T20:03:59.342Z,83.80
2022-09-19T20:06:32.825Z,84.20
2022-09-19T20:09:00.375Z,84.20
2022-09-19T20:11:27.335Z,84.80
2022-09-19T20:13:57.752Z,84.40
2022-09-19T20:16:25.672Z,83.00
2022-09-19T20:18:53.492Z,82.60
2022-09-19T20:21:21.677Z,82.20
2022-09-19T20:23:48.638Z,82.60
2022-09-19T20:26:18.105Z,82.60
2022-09-19T20:28:49.350Z,82.60
2022-09-19T20:31:17.263Z,82.90
2022-09-19T20:33:43.806Z,83.00
2022-09-19T20:36:10.766Z,82.00
2022-09-19T20:38:37.885Z,82.60
2022-09-19T20:41:05.672Z,82.00
2022-09-19T20:43:32.663Z,82.10
2022-09-19T20:46:00.409Z,82.20
2022-09-19T20:48:27.994Z,81.60
2022-09-19T20:50:58.509Z,81.90
2022-09-19T20:53:29.070Z,80.90
2022-09-19T20:55:55.920Z,79.60
2022-09-19T20:58:22.412Z,79.90
2022-09-19T21:01:05.414Z,80.50
2022-09-19T21:03:32.499Z,79.50
2022-09-19T21:05:59.036Z,79.90
2022-09-19T21:08:26.199Z,79.90
2022-09-19T21:10:59.225Z,78.30
2022-09-19T21:13:29.748Z,78.30
2022-09-19T21:15:56.595Z,76.90
2022-09-19T21:18:23.451Z,76.60
2022-09-19T21:20:59.933Z,76.60
2022-09-19T21:23:26.704Z,77.80
2022-09-19T21:26:03.687Z,78.20
2022-09-19T21:28:30.905Z,78.20
2022-09-19T21:30:57.576Z,78.20
2022-09-19T21:33:24.635Z,78.10
2022-09-19T21:35:51.277Z,78.20
2022-09-19T21:38:17.764Z,79.60
2022-09-19T21:40:44.412Z,80.00
2022-09-19T21:43:10.981Z,80.30
2022-09-19T21:45:37.582Z,80.40
2022-09-19T21:48:04.120Z,80.80
2022-09-19T21:50:30.637Z,81.60
2022-09-19T21:52:57.121Z,82.60
2022-09-19T21:55:24.019Z,83.10
2022-09-19T21:57:50.552Z,82.80
2022-09-19T22:00:17.090Z,83.40
2022-09-19T22:02:44.180Z,83.40
2022-09-19T22:05:14.451Z,82.60
2022-09-19T22:07:41.315Z,82.70
2022-09-19T22:10:08.022Z,82.80
2022-09-19T22:12:34.542Z,83.40
2022-09-19T22:15:01.797Z,83.50
2022-09-19T22:17:28.890Z,83.80
2022-09-19T22:19:55.385Z,83.00
2022-09-19T22:22:23.219Z,82.80
2022-09-19T22:24:49.806Z,82.50
2022-09-19T22:27:16.295Z,82.90
2022-09-19T22:29:42.809Z,82.40
2022-09-19T22:32:09.375Z,82.50
2022-09-19T22:34:36.015Z,82.70
2022-09-19T22:37:02.650Z,83.00
2022-09-19T22:39:29.224Z,83.00
2022-09-19T22:41:55.780Z,82.80
2022-09-19T22:44:22.280Z,82.80
2022-09-19T22:46:48.891Z,82.90
2022-09-19T22:49:15.658Z,82.10
2022-09-19T22:51:42.427Z,82.10
2022-09-19T22:54:09.211Z,82.60
2022-09-19T22:56:35.727Z,82.60
2022-09-19T22:59:03.576Z,82.80
2022-09-19T23:01:30.906Z,82.20
2022-09-19T23:03:58.760Z,82.10
2022-09-19T23:06:26.800Z,82.00
2022-09-19T23:08:57.697Z,82.60
2022-09-19T23:11:24.942Z,81.60
2022-09-19T23:13:52.172Z,81.30
2022-09-19T23:16:20.801Z,81.40
2022-09-19T23:18:54.515Z,81.50
2022-09-19T23:21:23.475Z,81.70
2022-09-19T23:23:50.609Z,81.40
2022-09-19T23:26:17.152Z,80.80
2022-09-19T23:28:43.857Z,80.40
2022-09-19T23:31:10.693Z,80.70
2022-09-19T23:33:37.540Z,80.20
2022-09-19T23:36:05.764Z,80.00
2022-09-19T23:38:32.557Z,80.00
2022-09-19T23:40:59.867Z,79.50
2022-09-19T23:43:26.387Z,80.00
2022-09-19T23:45:53.103Z,78.90
2022-09-19T23:48:19.750Z,79.00
2022-09-19T23:50:46.316Z,78.50
2022-09-19T23:53:15.313Z,79.30
2022-09-19T23:55:45.515Z,79.00
2022-09-19T23:58:12.874Z,78.80
